sensor_id;sensor_type;location;lat;lon;timestamp;temperature;humidity
21612;DHT22;47005;52.292;13.452;2023-05-10T00:00:33;14.90;69.20
21612;DHT22;47005;52.292;13.452;2023-05-10T00:02:59;14.90;69.30
21612;DHT22;47005;52.292;13.452;2023-05-10T00:05:25;14.90;69.70
21612;DHT22;47005;52.292;13.452;2023-05-10T00:07:50;14.80;69.60
21612;DHT22;47005;52.292;13.452;2023-05-10T00:10:16;14.80;69.90
21612;DHT22;47005;52.292;13.452;2023-05-10T00:12:42;14.80;69.70
21612;DHT22;47005;52.292;13.452;2023-05-10T00:15:08;14.70;69.80
21612;DHT22;47005;52.292;13.452;2023-05-10T00:17:34;14.70;70.20
21612;DHT22;47005;52.292;13.452;2023-05-10T00:20:00;14.70;70.70
21612;DHT22;47005;52.292;13.452;2023-05-10T00:22:26;14.70;70.20
21612;DHT22;47005;52.292;13.452;2023-05-10T00:24:51;14.60;70.20
21612;DHT22;47005;52.292;13.452;2023-05-10T00:27:17;14.60;71.20
21612;DHT22;47005;52.292;13.452;2023-05-10T00:29:42;14.60;71.30
21612;DHT22;47005;52.292;13.452;2023-05-10T00:32:08;14.50;71.20
21612;DHT22;47005;52.292;13.452;2023-05-10T00:34:34;14.50;71.20
21612;DHT22;47005;52.292;13.452;2023-05-10T00:36:59;14.50;70.80
21612;DHT22;47005;52.292;13.452;2023-05-10T00:39:25;14.50;71.70
21612;DHT22;47005;52.292;13.452;2023-05-10T00:41:52;14.50;71.40
21612;DHT22;47005;52.292;13.452;2023-05-10T00:44:17;14.40;71.30
21612;DHT22;47005;52.292;13.452;2023-05-10T00:46:43;14.40;71.90
21612;DHT22;47005;52.292;13.452;2023-05-10T00:49:09;14.40;72.10
21612;DHT22;47005;52.292;13.452;2023-05-10T00:51:35;14.40;72.30
21612;DHT22;47005;52.292;13.452;2023-05-10T00:54:02;14.30;72.40
21612;DHT22;47005;52.292;13.452;2023-05-10T00:56:28;14.30;72.00
21612;DHT22;47005;52.292;13.452;2023-05-10T00:58:55;14.30;72.10
21612;DHT22;47005;52.292;13.452;2023-05-10T01:01:21;14.30;72.20
21612;DHT22;47005;52.292;13.452;2023-05-10T01:03:47;14.30;71.90
21612;DHT22;47005;52.292;13.452;2023-05-10T01:06:13;14.30;71.90
21612;DHT22;47005;52.292;13.452;2023-05-10T01:08:39;14.20;71.90
21612;DHT22;47005;52.292;13.452;2023-05-10T01:11:05;14.20;71.60
21612;DHT22;47005;52.292;13.452;2023-05-10T01:13:39;14.20;72.30
21612;DHT22;47005;52.292;13.452;2023-05-10T01:16:06;14.20;72.10
21612;DHT22;47005;52.292;13.452;2023-05-10T01:18:38;14.10;72.70
21612;DHT22;47005;52.292;13.452;2023-05-10T01:21:17;14.10;72.90
21612;DHT22;47005;52.292;13.452;2023-05-10T01:24:00;14.10;72.20
21612;DHT22;47005;52.292;13.452;2023-05-10T01:26:44;14.10;72.00
21612;DHT22;47005;52.292;13.452;2023-05-10T01:32:27;14.00;72.10
21612;DHT22;47005;52.292;13.452;2023-05-10T01:35:03;14.00;73.00
21612;DHT22;47005;52.292;13.452;2023-05-10T01:37:42;14.00;72.90
21612;DHT22;47005;52.292;13.452;2023-05-10T01:40:32;14.00;72.70
21612;DHT22;47005;52.292;13.452;2023-05-10T01:43:01;13.90;72.50
21612;DHT22;47005;52.292;13.452;2023-05-10T01:45:36;13.90;72.80
21612;DHT22;47005;52.292;13.452;2023-05-10T01:48:10;13.90;72.90
21612;DHT22;47005;52.292;13.452;2023-05-10T01:50:38;13.80;72.60
21612;DHT22;47005;52.292;13.452;2023-05-10T01:53:07;13.90;72.90
21612;DHT22;47005;52.292;13.452;2023-05-10T01:55:36;13.80;74.10
21612;DHT22;47005;52.292;13.452;2023-05-10T01:58:10;13.80;73.40
21612;DHT22;47005;52.292;13.452;2023-05-10T02:00:40;13.80;73.90
21612;DHT22;47005;52.292;13.452;2023-05-10T02:03:08;13.70;73.40
21612;DHT22;47005;52.292;13.452;2023-05-10T02:05:37;13.70;73.90
21612;DHT22;47005;52.292;13.452;2023-05-10T02:08:06;13.70;74.00
21612;DHT22;47005;52.292;13.452;2023-05-10T02:10:34;13.70;73.60
21612;DHT22;47005;52.292;13.452;2023-05-10T02:13:02;13.60;74.30
21612;DHT22;47005;52.292;13.452;2023-05-10T02:15:28;13.60;74.10
21612;DHT22;47005;52.292;13.452;2023-05-10T02:17:55;13.60;74.00
21612;DHT22;47005;52.292;13.452;2023-05-10T02:20:23;13.60;74.10
21612;DHT22;47005;52.292;13.452;2023-05-10T02:22:52;13.50;74.60
21612;DHT22;47005;52.292;13.452;2023-05-10T02:25:19;13.50;74.50
21612;DHT22;47005;52.292;13.452;2023-05-10T02:27:46;13.50;74.40
21612;DHT22;47005;52.292;13.452;2023-05-10T02:30:13;13.50;74.30
21612;DHT22;47005;52.292;13.452;2023-05-10T02:32:39;13.50;74.80
21612;DHT22;47005;52.292;13.452;2023-05-10T02:35:06;13.40;74.50
21612;DHT22;47005;52.292;13.452;2023-05-10T02:37:33;13.40;74.60
21612;DHT22;47005;52.292;13.452;2023-05-10T02:40:00;13.40;74.80
21612;DHT22;47005;52.292;13.452;2023-05-10T02:42:29;13.40;75.40
21612;DHT22;47005;52.292;13.452;2023-05-10T02:45:00;13.30;75.40
21612;DHT22;47005;52.292;13.452;2023-05-10T02:47:27;13.30;75.50
21612;DHT22;47005;52.292;13.452;2023-05-10T02:49:53;13.30;75.20
21612;DHT22;47005;52.292;13.452;2023-05-10T02:52:25;13.30;75.50
21612;DHT22;47005;52.292;13.452;2023-05-10T02:54:55;13.30;75.50
21612;DHT22;47005;52.292;13.452;2023-05-10T02:57:31;13.20;77.40
21612;DHT22;47005;52.292;13.452;2023-05-10T02:59:58;13.20;76.10
21612;DHT22;47005;52.292;13.452;2023-05-10T03:02:23;13.20;75.80
21612;DHT22;47005;52.292;13.452;2023-05-10T03:04:49;13.20;76.10
21612;DHT22;47005;52.292;13.452;2023-05-10T03:07:15;13.20;76.90
21612;DHT22;47005;52.292;13.452;2023-05-10T03:09:41;13.10;76.00
21612;DHT22;47005;52.292;13.452;2023-05-10T03:12:23;13.10;76.00
21612;DHT22;47005;52.292;13.452;2023-05-10T03:17:56;13.10;76.90
21612;DHT22;47005;52.292;13.452;2023-05-10T03:20:29;13.00;76.50
21612;DHT22;47005;52.292;13.452;2023-05-10T03:23:21;13.00;75.90
21612;DHT22;47005;52.292;13.452;2023-05-10T03:25:48;13.00;76.50
21612;DHT22;47005;52.292;13.452;2023-05-10T03:28:17;13.00;76.40
21612;DHT22;47005;52.292;13.452;2023-05-10T03:30:43;13.00;76.20
21612;DHT22;47005;52.292;13.452;2023-05-10T03:33:09;13.00;76.60
21612;DHT22;47005;52.292;13.452;2023-05-10T03:35:36;12.90;76.70
21612;DHT22;47005;52.292;13.452;2023-05-10T03:38:02;12.90;77.10
21612;DHT22;47005;52.292;13.452;2023-05-10T03:40:28;12.90;77.90
21612;DHT22;47005;52.292;13.452;2023-05-10T03:42:56;12.90;77.10
21612;DHT22;47005;52.292;13.452;2023-05-10T03:45:22;12.90;77.70
21612;DHT22;47005;52.292;13.452;2023-05-10T03:47:48;12.80;78.00
21612;DHT22;47005;52.292;13.452;2023-05-10T03:50:13;12.80;77.90
21612;DHT22;47005;52.292;13.452;2023-05-10T03:52:39;12.80;77.60
21612;DHT22;47005;52.292;13.452;2023-05-10T03:55:05;12.80;78.10
21612;DHT22;47005;52.292;13.452;2023-05-10T03:57:32;12.80;78.50
21612;DHT22;47005;52.292;13.452;2023-05-10T03:59:57;12.70;79.20
21612;DHT22;47005;52.292;13.452;2023-05-10T04:02:23;12.70;78.70
21612;DHT22;47005;52.292;13.452;2023-05-10T04:04:49;12.70;79.30
21612;DHT22;47005;52.292;13.452;2023-05-10T04:07:15;12.70;78.80
21612;DHT22;47005;52.292;13.452;2023-05-10T04:09:40;12.70;79.50
21612;DHT22;47005;52.292;13.452;2023-05-10T04:12:06;12.70;78.90
21612;DHT22;47005;52.292;13.452;2023-05-10T04:14:32;12.70;79.10
21612;DHT22;47005;52.292;13.452;2023-05-10T04:16:57;12.70;79.90
21612;DHT22;47005;52.292;13.452;2023-05-10T04:19:23;12.70;79.20
21612;DHT22;47005;52.292;13.452;2023-05-10T04:21:49;12.70;79.80
21612;DHT22;47005;52.292;13.452;2023-05-10T04:24:14;12.70;80.00
21612;DHT22;47005;52.292;13.452;2023-05-10T04:26:40;12.70;79.40
21612;DHT22;47005;52.292;13.452;2023-05-10T04:29:06;12.70;80.20
21612;DHT22;47005;52.292;13.452;2023-05-10T04:31:32;12.70;79.80
21612;DHT22;47005;52.292;13.452;2023-05-10T04:33:57;12.70;79.40
21612;DHT22;47005;52.292;13.452;2023-05-10T04:36:23;12.70;80.20
21612;DHT22;47005;52.292;13.452;2023-05-10T04:38:49;12.70;81.80
21612;DHT22;47005;52.292;13.452;2023-05-10T04:41:14;12.70;81.30
21612;DHT22;47005;52.292;13.452;2023-05-10T04:43:40;12.70;80.70
21612;DHT22;47005;52.292;13.452;2023-05-10T04:46:06;12.80;80.20
21612;DHT22;47005;52.292;13.452;2023-05-10T04:48:32;12.70;79.70
21612;DHT22;47005;52.292;13.452;2023-05-10T04:50:58;12.80;79.60
21612;DHT22;47005;52.292;13.452;2023-05-10T04:53:24;12.80;80.00
21612;DHT22;47005;52.292;13.452;2023-05-10T04:55:52;12.80;81.00
21612;DHT22;47005;52.292;13.452;2023-05-10T04:58:18;12.80;80.80
21612;DHT22;47005;52.292;13.452;2023-05-10T05:00:43;12.80;80.00
21612;DHT22;47005;52.292;13.452;2023-05-10T05:03:09;12.90;80.80
21612;DHT22;47005;52.292;13.452;2023-05-10T05:05:35;12.90;80.80
21612;DHT22;47005;52.292;13.452;2023-05-10T05:08:00;12.90;80.70
21612;DHT22;47005;52.292;13.452;2023-05-10T05:10:26;12.90;80.50
21612;DHT22;47005;52.292;13.452;2023-05-10T05:12:52;13.00;81.40
21612;DHT22;47005;52.292;13.452;2023-05-10T05:15:17;13.00;81.70
21612;DHT22;47005;52.292;13.452;2023-05-10T05:17:43;13.00;81.00
21612;DHT22;47005;52.292;13.452;2023-05-10T05:20:09;13.10;80.60
21612;DHT22;47005;52.292;13.452;2023-05-10T05:22:38;13.10;80.50
21612;DHT22;47005;52.292;13.452;2023-05-10T05:25:04;13.10;80.00
21612;DHT22;47005;52.292;13.452;2023-05-10T05:27:31;13.10;80.00
21612;DHT22;47005;52.292;13.452;2023-05-10T05:29:57;13.20;79.80
21612;DHT22;47005;52.292;13.452;2023-05-10T05:32:23;13.20;79.30
21612;DHT22;47005;52.292;13.452;2023-05-10T05:34:49;13.30;79.60
21612;DHT22;47005;52.292;13.452;2023-05-10T05:37:17;13.30;79.60
21612;DHT22;47005;52.292;13.452;2023-05-10T05:39:43;13.30;79.10
21612;DHT22;47005;52.292;13.452;2023-05-10T05:42:09;13.40;79.30
21612;DHT22;47005;52.292;13.452;2023-05-10T05:44:35;13.40;79.30
21612;DHT22;47005;52.292;13.452;2023-05-10T05:47:01;13.40;79.40
21612;DHT22;47005;52.292;13.452;2023-05-10T05:49:27;13.50;79.40
21612;DHT22;47005;52.292;13.452;2023-05-10T05:51:53;13.50;79.10
21612;DHT22;47005;52.292;13.452;2023-05-10T05:54:18;13.50;79.40
21612;DHT22;47005;52.292;13.452;2023-05-10T05:56:44;13.60;79.50
21612;DHT22;47005;52.292;13.452;2023-05-10T05:59:10;13.60;79.10
21612;DHT22;47005;52.292;13.452;2023-05-10T06:01:36;13.60;78.90
21612;DHT22;47005;52.292;13.452;2023-05-10T06:04:02;13.70;79.00
21612;DHT22;47005;52.292;13.452;2023-05-10T06:06:28;13.70;79.00
21612;DHT22;47005;52.292;13.452;2023-05-10T06:08:54;13.70;79.10
21612;DHT22;47005;52.292;13.452;2023-05-10T06:11:20;13.80;79.40
21612;DHT22;47005;52.292;13.452;2023-05-10T06:13:46;13.80;79.40
21612;DHT22;47005;52.292;13.452;2023-05-10T06:16:12;13.90;79.10
21612;DHT22;47005;52.292;13.452;2023-05-10T06:18:38;13.90;78.90
21612;DHT22;47005;52.292;13.452;2023-05-10T06:21:04;13.90;78.80
21612;DHT22;47005;52.292;13.452;2023-05-10T06:23:30;14.00;78.90
21612;DHT22;47005;52.292;13.452;2023-05-10T06:25:55;14.00;79.80
21612;DHT22;47005;52.292;13.452;2023-05-10T06:28:21;14.00;78.80
21612;DHT22;47005;52.292;13.452;2023-05-10T06:30:47;14.10;78.50
21612;DHT22;47005;52.292;13.452;2023-05-10T06:33:13;14.20;78.70
21612;DHT22;47005;52.292;13.452;2023-05-10T06:35:38;14.20;78.80
21612;DHT22;47005;52.292;13.452;2023-05-10T06:38:04;14.20;78.80
21612;DHT22;47005;52.292;13.452;2023-05-10T06:40:30;14.30;78.80
21612;DHT22;47005;52.292;13.452;2023-05-10T06:42:56;14.40;78.90
21612;DHT22;47005;52.292;13.452;2023-05-10T06:45:21;14.40;78.70
21612;DHT22;47005;52.292;13.452;2023-05-10T06:47:47;14.50;78.30
21612;DHT22;47005;52.292;13.452;2023-05-10T06:50:13;14.50;78.10
21612;DHT22;47005;52.292;13.452;2023-05-10T06:52:39;14.60;78.20
21612;DHT22;47005;52.292;13.452;2023-05-10T06:55:05;14.60;78.80
21612;DHT22;47005;52.292;13.452;2023-05-10T06:57:31;14.70;78.80
21612;DHT22;47005;52.292;13.452;2023-05-10T06:59:57;14.80;78.50
21612;DHT22;47005;52.292;13.452;2023-05-10T07:02:23;14.80;77.60
21612;DHT22;47005;52.292;13.452;2023-05-10T07:04:48;14.80;78.60
21612;DHT22;47005;52.292;13.452;2023-05-10T07:07:14;14.90;77.50
21612;DHT22;47005;52.292;13.452;2023-05-10T07:09:40;15.00;78.10
21612;DHT22;47005;52.292;13.452;2023-05-10T07:12:06;15.00;77.30
21612;DHT22;47005;52.292;13.452;2023-05-10T07:14:31;15.10;77.20
21612;DHT22;47005;52.292;13.452;2023-05-10T07:16:57;15.10;77.10
21612;DHT22;47005;52.292;13.452;2023-05-10T07:19:23;15.10;77.30
21612;DHT22;47005;52.292;13.452;2023-05-10T07:21:49;15.20;76.60
21612;DHT22;47005;52.292;13.452;2023-05-10T07:24:15;15.20;76.80
21612;DHT22;47005;52.292;13.452;2023-05-10T07:26:41;15.30;77.00
21612;DHT22;47005;52.292;13.452;2023-05-10T07:29:06;15.30;76.80
21612;DHT22;47005;52.292;13.452;2023-05-10T07:31:32;15.40;77.20
21612;DHT22;47005;52.292;13.452;2023-05-10T07:33:57;15.40;77.00
21612;DHT22;47005;52.292;13.452;2023-05-10T07:36:23;15.40;76.70
21612;DHT22;47005;52.292;13.452;2023-05-10T07:38:49;15.50;76.80
21612;DHT22;47005;52.292;13.452;2023-05-10T07:41:15;15.50;76.70
21612;DHT22;47005;52.292;13.452;2023-05-10T07:43:41;15.60;76.40
21612;DHT22;47005;52.292;13.452;2023-05-10T07:46:06;15.60;76.50
21612;DHT22;47005;52.292;13.452;2023-05-10T07:48:32;15.60;76.50
21612;DHT22;47005;52.292;13.452;2023-05-10T07:50:58;15.70;76.70
21612;DHT22;47005;52.292;13.452;2023-05-10T07:53:26;15.70;76.90
21612;DHT22;47005;52.292;13.452;2023-05-10T07:55:54;15.80;76.60
21612;DHT22;47005;52.292;13.452;2023-05-10T07:58:22;15.80;75.90
21612;DHT22;47005;52.292;13.452;2023-05-10T08:00:47;15.80;76.70
21612;DHT22;47005;52.292;13.452;2023-05-10T08:03:14;15.90;76.30
21612;DHT22;47005;52.292;13.452;2023-05-10T08:05:40;15.90;75.60
21612;DHT22;47005;52.292;13.452;2023-05-10T08:08:06;15.90;75.50
21612;DHT22;47005;52.292;13.452;2023-05-10T08:10:32;16.00;75.60
21612;DHT22;47005;52.292;13.452;2023-05-10T08:12:57;16.00;75.70
21612;DHT22;47005;52.292;13.452;2023-05-10T08:15:24;16.10;75.40
21612;DHT22;47005;52.292;13.452;2023-05-10T08:17:51;16.10;75.30
21612;DHT22;47005;52.292;13.452;2023-05-10T08:20:17;16.20;75.50
21612;DHT22;47005;52.292;13.452;2023-05-10T08:22:45;16.20;75.60
21612;DHT22;47005;52.292;13.452;2023-05-10T08:25:11;16.20;75.40
21612;DHT22;47005;52.292;13.452;2023-05-10T08:27:36;16.30;75.30
21612;DHT22;47005;52.292;13.452;2023-05-10T08:30:02;16.30;76.30
21612;DHT22;47005;52.292;13.452;2023-05-10T08:32:28;16.40;75.60
21612;DHT22;47005;52.292;13.452;2023-05-10T08:34:53;16.40;75.50
21612;DHT22;47005;52.292;13.452;2023-05-10T08:37:19;16.40;75.60
21612;DHT22;47005;52.292;13.452;2023-05-10T08:39:45;16.50;75.50
21612;DHT22;47005;52.292;13.452;2023-05-10T08:42:16;16.50;75.20
21612;DHT22;47005;52.292;13.452;2023-05-10T08:44:45;16.60;75.20
21612;DHT22;47005;52.292;13.452;2023-05-10T08:47:16;16.60;75.20
21612;DHT22;47005;52.292;13.452;2023-05-10T08:49:44;16.60;75.40
21612;DHT22;47005;52.292;13.452;2023-05-10T08:52:13;16.70;75.40
21612;DHT22;47005;52.292;13.452;2023-05-10T08:54:41;16.70;75.70
21612;DHT22;47005;52.292;13.452;2023-05-10T08:57:07;16.70;75.10
21612;DHT22;47005;52.292;13.452;2023-05-10T08:59:33;16.80;75.40
21612;DHT22;47005;52.292;13.452;2023-05-10T09:01:59;16.80;75.90
21612;DHT22;47005;52.292;13.452;2023-05-10T09:04:25;16.90;75.50
21612;DHT22;47005;52.292;13.452;2023-05-10T09:06:51;16.90;75.20
21612;DHT22;47005;52.292;13.452;2023-05-10T09:09:17;17.00;75.40
21612;DHT22;47005;52.292;13.452;2023-05-10T09:11:44;17.00;74.40
21612;DHT22;47005;52.292;13.452;2023-05-10T09:14:11;17.00;74.30
21612;DHT22;47005;52.292;13.452;2023-05-10T09:16:38;17.10;75.30
21612;DHT22;47005;52.292;13.452;2023-05-10T09:19:03;17.10;75.10
21612;DHT22;47005;52.292;13.452;2023-05-10T09:21:30;17.10;75.30
21612;DHT22;47005;52.292;13.452;2023-05-10T09:23:56;17.20;75.80
21612;DHT22;47005;52.292;13.452;2023-05-10T09:26:23;17.20;75.20
21612;DHT22;47005;52.292;13.452;2023-05-10T09:31:18;17.30;75.20
21612;DHT22;47005;52.292;13.452;2023-05-10T09:33:44;17.30;75.20
21612;DHT22;47005;52.292;13.452;2023-05-10T09:36:11;17.40;74.90
21612;DHT22;47005;52.292;13.452;2023-05-10T09:38:50;17.40;74.10
21612;DHT22;47005;52.292;13.452;2023-05-10T09:41:23;17.50;73.80
21612;DHT22;47005;52.292;13.452;2023-05-10T09:43:51;17.50;74.30
21612;DHT22;47005;52.292;13.452;2023-05-10T09:46:21;17.50;73.60
21612;DHT22;47005;52.292;13.452;2023-05-10T09:48:48;17.60;73.40
21612;DHT22;47005;52.292;13.452;2023-05-10T09:51:24;17.60;73.90
21612;DHT22;47005;52.292;13.452;2023-05-10T09:54:13;17.70;74.10
21612;DHT22;47005;52.292;13.452;2023-05-10T09:56:39;17.70;73.50
21612;DHT22;47005;52.292;13.452;2023-05-10T09:59:07;17.70;73.50
21612;DHT22;47005;52.292;13.452;2023-05-10T10:01:34;17.80;72.90
21612;DHT22;47005;52.292;13.452;2023-05-10T10:04:05;17.80;72.90
21612;DHT22;47005;52.292;13.452;2023-05-10T10:06:38;17.90;73.30
21612;DHT22;47005;52.292;13.452;2023-05-10T10:09:05;17.90;73.40
21612;DHT22;47005;52.292;13.452;2023-05-10T10:11:33;17.90;73.40
21612;DHT22;47005;52.292;13.452;2023-05-10T10:13:58;18.00;72.80
21612;DHT22;47005;52.292;13.452;2023-05-10T10:16:25;18.00;73.30
21612;DHT22;47005;52.292;13.452;2023-05-10T10:18:52;18.00;72.00
21612;DHT22;47005;52.292;13.452;2023-05-10T10:21:18;18.10;71.30
21612;DHT22;47005;52.292;13.452;2023-05-10T10:23:44;18.10;70.80
21612;DHT22;47005;52.292;13.452;2023-05-10T10:26:11;18.20;71.90
21612;DHT22;47005;52.292;13.452;2023-05-10T10:31:41;18.20;72.30
21612;DHT22;47005;52.292;13.452;2023-05-10T10:34:11;18.30;71.90
21612;DHT22;47005;52.292;13.452;2023-05-10T10:36:45;18.30;72.30
21612;DHT22;47005;52.292;13.452;2023-05-10T10:39:11;18.40;72.00
21612;DHT22;47005;52.292;13.452;2023-05-10T10:47:22;18.50;71.80
21612;DHT22;47005;52.292;13.452;2023-05-10T10:52:39;18.50;71.60
21612;DHT22;47005;52.292;13.452;2023-05-10T10:55:18;18.60;71.30
21612;DHT22;47005;52.292;13.452;2023-05-10T10:57:49;18.60;71.30
21612;DHT22;47005;52.292;13.452;2023-05-10T11:00:30;18.70;71.50
21612;DHT22;47005;52.292;13.452;2023-05-10T11:03:05;18.70;71.00
21612;DHT22;47005;52.292;13.452;2023-05-10T11:08:27;18.80;70.90
21612;DHT22;47005;52.292;13.452;2023-05-10T11:16:20;18.90;70.70
21612;DHT22;47005;52.292;13.452;2023-05-10T11:19:03;19.00;70.70
21612;DHT22;47005;52.292;13.452;2023-05-10T11:21:30;19.00;71.00
21612;DHT22;47005;52.292;13.452;2023-05-10T11:23:57;19.00;71.10
21612;DHT22;47005;52.292;13.452;2023-05-10T11:26:35;19.10;69.70
21612;DHT22;47005;52.292;13.452;2023-05-10T11:29:01;19.10;69.80
21612;DHT22;47005;52.292;13.452;2023-05-10T11:31:28;19.10;69.30
21612;DHT22;47005;52.292;13.452;2023-05-10T11:33:55;19.20;69.80
21612;DHT22;47005;52.292;13.452;2023-05-10T11:36:24;19.20;70.00
21612;DHT22;47005;52.292;13.452;2023-05-10T11:38:51;19.30;69.60
21612;DHT22;47005;52.292;13.452;2023-05-10T11:41:18;19.30;68.50
21612;DHT22;47005;52.292;13.452;2023-05-10T11:43:46;19.30;68.90
21612;DHT22;47005;52.292;13.452;2023-05-10T11:46:12;19.40;69.00
21612;DHT22;47005;52.292;13.452;2023-05-10T11:48:39;19.40;68.60
21612;DHT22;47005;52.292;13.452;2023-05-10T11:51:06;19.40;68.40
21612;DHT22;47005;52.292;13.452;2023-05-10T11:53:32;19.50;67.90
21612;DHT22;47005;52.292;13.452;2023-05-10T11:56:11;19.50;68.30
21612;DHT22;47005;52.292;13.452;2023-05-10T11:58:38;19.50;67.30
21612;DHT22;47005;52.292;13.452;2023-05-10T12:01:07;19.60;66.90
21612;DHT22;47005;52.292;13.452;2023-05-10T12:03:33;19.60;67.10
21612;DHT22;47005;52.292;13.452;2023-05-10T12:06:01;19.70;67.40
21612;DHT22;47005;52.292;13.452;2023-05-10T12:08:28;19.70;66.50
21612;DHT22;47005;52.292;13.452;2023-05-10T12:11:05;19.70;66.80
21612;DHT22;47005;52.292;13.452;2023-05-10T12:13:31;19.80;66.80
21612;DHT22;47005;52.292;13.452;2023-05-10T12:16:15;19.90;67.10
21612;DHT22;47005;52.292;13.452;2023-05-10T12:18:41;19.90;67.10
21612;DHT22;47005;52.292;13.452;2023-05-10T12:21:12;20.00;67.70
21612;DHT22;47005;52.292;13.452;2023-05-10T12:23:41;20.10;67.20
21612;DHT22;47005;52.292;13.452;2023-05-10T12:26:09;20.20;66.60
21612;DHT22;47005;52.292;13.452;2023-05-10T12:28:38;20.30;65.00
21612;DHT22;47005;52.292;13.452;2023-05-10T12:31:06;20.40;64.50
21612;DHT22;47005;52.292;13.452;2023-05-10T12:33:42;20.40;64.30
21612;DHT22;47005;52.292;13.452;2023-05-10T12:36:09;20.50;65.20
21612;DHT22;47005;52.292;13.452;2023-05-10T12:38:40;20.50;64.70
21612;DHT22;47005;52.292;13.452;2023-05-10T12:41:12;20.50;65.10
21612;DHT22;47005;52.292;13.452;2023-05-10T12:43:39;20.50;64.30
21612;DHT22;47005;52.292;13.452;2023-05-10T12:46:23;20.60;65.30
21612;DHT22;47005;52.292;13.452;2023-05-10T12:48:50;20.80;66.60
21612;DHT22;47005;52.292;13.452;2023-05-10T12:51:20;21.10;66.60
21612;DHT22;47005;52.292;13.452;2023-05-10T12:53:47;21.50;63.60
21612;DHT22;47005;52.292;13.452;2023-05-10T12:56:13;21.90;60.20
21612;DHT22;47005;52.292;13.452;2023-05-10T12:58:38;22.20;61.90
21612;DHT22;47005;52.292;13.452;2023-05-10T13:01:05;22.40;62.00
21612;DHT22;47005;52.292;13.452;2023-05-10T13:03:30;22.60;61.20
21612;DHT22;47005;52.292;13.452;2023-05-10T13:05:56;22.70;61.30
21612;DHT22;47005;52.292;13.452;2023-05-10T13:08:22;22.80;61.50
21612;DHT22;47005;52.292;13.452;2023-05-10T13:10:48;23.00;61.70
21612;DHT22;47005;52.292;13.452;2023-05-10T13:13:14;23.10;60.90
21612;DHT22;47005;52.292;13.452;2023-05-10T13:15:40;23.20;59.80
21612;DHT22;47005;52.292;13.452;2023-05-10T13:18:06;23.30;60.90
21612;DHT22;47005;52.292;13.452;2023-05-10T13:20:31;23.60;59.60
21612;DHT22;47005;52.292;13.452;2023-05-10T13:22:57;23.80;60.60
21612;DHT22;47005;52.292;13.452;2023-05-10T13:25:22;24.10;58.20
21612;DHT22;47005;52.292;13.452;2023-05-10T13:27:48;24.40;57.60
21612;DHT22;47005;52.292;13.452;2023-05-10T13:30:14;24.70;59.30
21612;DHT22;47005;52.292;13.452;2023-05-10T13:32:41;24.90;58.00
21612;DHT22;47005;52.292;13.452;2023-05-10T13:35:08;25.00;54.20
21612;DHT22;47005;52.292;13.452;2023-05-10T13:37:33;24.90;52.20
21612;DHT22;47005;52.292;13.452;2023-05-10T13:40:02;24.80;55.80
21612;DHT22;47005;52.292;13.452;2023-05-10T13:42:29;24.80;55.80
21612;DHT22;47005;52.292;13.452;2023-05-10T13:44:56;24.60;55.30
21612;DHT22;47005;52.292;13.452;2023-05-10T13:47:21;24.50;54.80
21612;DHT22;47005;52.292;13.452;2023-05-10T13:49:47;24.30;54.60
21612;DHT22;47005;52.292;13.452;2023-05-10T13:52:13;24.20;55.10
21612;DHT22;47005;52.292;13.452;2023-05-10T13:54:39;24.00;54.90
21612;DHT22;47005;52.292;13.452;2023-05-10T13:57:04;23.80;55.60
21612;DHT22;47005;52.292;13.452;2023-05-10T13:59:30;23.70;55.20
21612;DHT22;47005;52.292;13.452;2023-05-10T14:01:59;23.50;55.50
21612;DHT22;47005;52.292;13.452;2023-05-10T14:04:29;23.30;53.90
21612;DHT22;47005;52.292;13.452;2023-05-10T14:06:55;23.20;54.40
21612;DHT22;47005;52.292;13.452;2023-05-10T14:09:20;23.10;55.80
21612;DHT22;47005;52.292;13.452;2023-05-10T14:11:46;23.00;55.70
21612;DHT22;47005;52.292;13.452;2023-05-10T14:14:12;22.90;55.50
21612;DHT22;47005;52.292;13.452;2023-05-10T14:16:43;22.80;56.20
21612;DHT22;47005;52.292;13.452;2023-05-10T14:19:10;22.80;56.40
21612;DHT22;47005;52.292;13.452;2023-05-10T14:21:36;22.70;56.30
21612;DHT22;47005;52.292;13.452;2023-05-10T14:24:02;22.60;56.20
21612;DHT22;47005;52.292;13.452;2023-05-10T14:26:28;22.60;56.40
21612;DHT22;47005;52.292;13.452;2023-05-10T14:28:53;22.50;56.60
21612;DHT22;47005;52.292;13.452;2023-05-10T14:31:19;22.50;57.20
21612;DHT22;47005;52.292;13.452;2023-05-10T14:33:46;22.40;57.40
21612;DHT22;47005;52.292;13.452;2023-05-10T14:36:12;22.40;57.10
21612;DHT22;47005;52.292;13.452;2023-05-10T14:38:38;22.30;57.50
21612;DHT22;47005;52.292;13.452;2023-05-10T14:41:04;22.30;58.00
21612;DHT22;47005;52.292;13.452;2023-05-10T14:43:30;22.30;58.20
21612;DHT22;47005;52.292;13.452;2023-05-10T14:45:55;22.20;58.10
21612;DHT22;47005;52.292;13.452;2023-05-10T14:48:21;22.20;58.40
21612;DHT22;47005;52.292;13.452;2023-05-10T14:50:47;22.20;58.50
21612;DHT22;47005;52.292;13.452;2023-05-10T14:53:12;22.10;58.60
21612;DHT22;47005;52.292;13.452;2023-05-10T14:55:38;22.10;58.60
21612;DHT22;47005;52.292;13.452;2023-05-10T14:58:04;22.10;58.90
21612;DHT22;47005;52.292;13.452;2023-05-10T15:00:30;22.10;58.90
21612;DHT22;47005;52.292;13.452;2023-05-10T15:02:56;22.10;58.90
21612;DHT22;47005;52.292;13.452;2023-05-10T15:05:22;22.00;59.00
21612;DHT22;47005;52.292;13.452;2023-05-10T15:07:47;22.00;59.30
21612;DHT22;47005;52.292;13.452;2023-05-10T15:10:13;22.10;59.40
21612;DHT22;47005;52.292;13.452;2023-05-10T15:12:39;22.10;59.90
21612;DHT22;47005;52.292;13.452;2023-05-10T15:15:07;22.00;59.70
21612;DHT22;47005;52.292;13.452;2023-05-10T15:17:33;22.10;59.50
21612;DHT22;47005;52.292;13.452;2023-05-10T15:19:59;22.10;59.00
21612;DHT22;47005;52.292;13.452;2023-05-10T15:22:25;22.00;59.10
21612;DHT22;47005;52.292;13.452;2023-05-10T15:24:53;22.00;60.20
21612;DHT22;47005;52.292;13.452;2023-05-10T15:27:19;22.00;59.60
21612;DHT22;47005;52.292;13.452;2023-05-10T15:29:44;22.00;60.60
21612;DHT22;47005;52.292;13.452;2023-05-10T15:32:10;22.00;59.90
21612;DHT22;47005;52.292;13.452;2023-05-10T15:34:35;22.00;59.80
21612;DHT22;47005;52.292;13.452;2023-05-10T15:37:01;22.00;60.10
21612;DHT22;47005;52.292;13.452;2023-05-10T15:39:28;22.00;60.40
21612;DHT22;47005;52.292;13.452;2023-05-10T15:41:53;22.00;60.20
21612;DHT22;47005;52.292;13.452;2023-05-10T15:44:19;21.90;60.40